Irini — SYZA — position and weather

sailwx.info

Track history (hours):
 
Tides and Currents Weather Stations Pressure Air Temp Water Temp Dewpoint Dewpoint Depression Visibility Wind Speed Wind Dir Waves Ship Positions

Irini

Last reported at 2018-Feb-25 19:28 UTC. Time now 2018-Feb-25 19:43 UTC.
Position N 38°01' E 023°32'.

Length 137 m; draft 5.9 m.

Type: Ship (hazmat cat A). MMSI: 240052000.

Date/timePositionNaut miles runAvg speedWind from/ knotsBaromVisibWave heightAir tempDewpointWater temp
2018-Feb-25 19:28N 38°01' E 023°32'0 0.0
2018-Feb-25 18:58N 38°01' E 023°32'0 0.0
2018-Feb-25 18:28N 38°01' E 023°32'0 0.0
2018-Feb-25 17:58N 38°01' E 023°32'0 0.0
2018-Feb-25 17:28N 38°01' E 023°32'0 0.0
2018-Feb-25 16:58N 38°01' E 023°32'0 0.0
2018-Feb-25 16:28N 38°01' E 023°32'0 0.0
2018-Feb-25 15:58N 38°01' E 023°32'0 0.2
2018-Feb-25 15:28N 38°02' E 023°33'0 0.1
2018-Feb-25 14:58N 38°02' E 023°33'0 0.1
2018-Feb-25 14:28N 38°02' E 023°33'0 0.1
2018-Feb-25 13:58N 38°01' E 023°32'0 0.0
2018-Feb-25 13:28N 38°01' E 023°32'0 0.0
2018-Feb-25 12:58N 38°01' E 023°32'2 3.3
2018-Feb-25 12:30N 37°60' E 023°33'4 8.5
2018-Feb-25 12:00N 37°56' E 023°36'5 9.2
2018-Feb-25 11:30N 37°52' E 023°37'611.3
2018-Feb-25 11:00N 37°47' E 023°41'611.2
2018-Feb-25 10:30N 37°42' E 023°44'611.2
2018-Feb-25 10:00N 37°39' E 023°50'1511.1
2018-Feb-25 08:42N 37°37' E 024°08'912.0
2018-Feb-25 07:57N 37°43' E 024°17'3710.1
2018-Feb-25 04:17N 38°18' E 024°32'411.1
2018-Feb-25 03:57N 38°21' E 024°30'  
2018-Feb-22 10:27N 37°37' E 024°05'510.8
2018-Feb-22 10:00N 37°36' E 023°59'510.8
2018-Feb-22 09:30N 37°37' E 023°52'611.1
2018-Feb-22 09:00N 37°39' E 023°46'510.3
2018-Feb-22 08:30N 37°42' E 023°41'511.0
2018-Feb-22 08:00N 37°47' E 023°38'510.8
2018-Feb-22 07:31N 37°53' E 023°36'4 8.4
2018-Feb-22 07:00N 37°57' E 023°36'4 7.6
2018-Feb-22 06:30N 37°60' E 023°33'2 3.5
2018-Feb-22 05:59N 38°01' E 023°32'0 0.0
2018-Feb-22 05:29N 38°01' E 023°32'0 0.0
2018-Feb-22 04:59N 38°01' E 023°32'0 0.0
2018-Feb-22 04:29N 38°01' E 023°32'0 0.0
2018-Feb-22 03:59N 38°01' E 023°32'0 0.0
2018-Feb-22 03:29N 38°01' E 023°32'0 0.1
2018-Feb-22 02:59N 38°01' E 023°32'0 0.0
2018-Feb-22 02:29N 38°01' E 023°32'0 0.0
2018-Feb-22 01:59N 38°01' E 023°32'0 0.0
2018-Feb-22 01:29N 38°01' E 023°32'0 0.1
2018-Feb-22 00:59N 38°01' E 023°32'0 0.0
2018-Feb-22 00:29N 38°01' E 023°32'0 0.0
2018-Feb-21 23:59N 38°01' E 023°32'0 0.1
2018-Feb-21 23:29N 38°01' E 023°32'0 0.1
2018-Feb-21 23:00N 38°01' E 023°32'1 2.5
2018-Feb-21 22:30N 38°02' E 023°31'0 0.2
2018-Feb-21 21:59N 38°02' E 023°31'0 0.0
2018-Feb-21 21:28N 38°02' E 023°31'0 0.0
2018-Feb-21 20:58N 38°02' E 023°31'0 0.0
2018-Feb-21 20:28N 38°02' E 023°31'0 0.0
2018-Feb-21 19:58N 38°02' E 023°31'0 0.0
2018-Feb-21 19:28N 38°02' E 023°31'0 0.0
2018-Feb-21 18:58N 38°02' E 023°31'0 0.0
2018-Feb-21 18:28N 38°02' E 023°31'0 0.0
2018-Feb-21 17:58N 38°02' E 023°31'0 0.0
2018-Feb-21 17:28N 38°02' E 023°31'0 0.0
2018-Feb-21 16:58N 38°02' E 023°31'0 0.0
2018-Feb-21 16:28N 38°02' E 023°31'0 0.0
2018-Feb-21 15:58N 38°02' E 023°31'0 0.0
2018-Feb-21 15:28N 38°02' E 023°31'0 0.0
2018-Feb-21 14:58N 38°02' E 023°31'0 0.0
2018-Feb-21 14:29N 38°02' E 023°31'0 0.0
2018-Feb-21 13:58N 38°02' E 023°31'0 0.0
2018-Feb-21 13:29N 38°02' E 023°31'0 0.0
2018-Feb-21 12:58N 38°02' E 023°31'0 0.0
2018-Feb-21 12:28N 38°02' E 023°31'0 0.0
2018-Feb-21 11:58N 38°02' E 023°31'0 0.0
2018-Feb-21 11:29N 38°02' E 023°31'0 0.0
2018-Feb-21 10:58N 38°02' E 023°31'0 0.0
2018-Feb-21 10:29N 38°02' E 023°31'0 0.0
2018-Feb-21 09:58N 38°02' E 023°31'0 0.0
2018-Feb-21 09:28N 38°02' E 023°31'0 0.0
2018-Feb-21 08:58N 38°02' E 023°31'0 0.0
2018-Feb-21 08:28N 38°02' E 023°31'0 0.0
2018-Feb-21 07:58N 38°02' E 023°31'0 0.0
2018-Feb-21 07:28N 38°02' E 023°31'0 0.0
2018-Feb-21 06:58N 38°02' E 023°31'0 0.0
2018-Feb-21 06:28N 38°02' E 023°31'0 0.0
2018-Feb-21 05:58N 38°02' E 023°31'0 0.0
2018-Feb-21 05:28N 38°02' E 023°31'0 0.0
2018-Feb-21 04:58N 38°02' E 023°31'0 0.0
2018-Feb-21 04:28N 38°02' E 023°31'0 0.0
2018-Feb-21 03:58N 38°02' E 023°31'0 0.0
2018-Feb-21 03:28N 38°02' E 023°31'0 0.0
2018-Feb-21 02:58N 38°02' E 023°31'0 0.0
2018-Feb-21 02:29N 38°02' E 023°31'0 0.0
2018-Feb-21 01:59N 38°02' E 023°31'0 0.0
2018-Feb-21 01:29N 38°02' E 023°31'0 0.0
2018-Feb-21 00:58N 38°02' E 023°31'0 0.0
2018-Feb-21 00:28N 38°02' E 023°31'0 0.0
2018-Feb-20 23:56N 38°02' E 023°31'0 0.0
2018-Feb-20 23:29N 38°02' E 023°31'0 0.0
2018-Feb-20 22:59N 38°02' E 023°31'0 0.0
2018-Feb-20 22:29N 38°02' E 023°31'0 0.0
2018-Feb-20 21:59N 38°02' E 023°31'0 0.0
2018-Feb-20 21:29N 38°02' E 023°31'0 0.0
2018-Feb-20 20:58N 38°02' E 023°31'0 0.0
2018-Feb-20 20:29N 38°02' E 023°31'0 0.0
2018-Feb-20 19:59N 38°02' E 023°31'0 0.0
2018-Feb-20 19:28N 38°02' E 023°31'0 0.0
2018-Feb-20 18:58N 38°02' E 023°31'0 0.0
2018-Feb-20 18:28N 38°02' E 023°31'0 0.0
2018-Feb-20 17:58N 38°02' E 023°31'0 0.0
2018-Feb-20 17:29N 38°02' E 023°31'0 0.0
2018-Feb-20 16:58N 38°02' E 023°31'0 0.0
2018-Feb-20 16:25N 38°02' E 023°31'0 0.0
2018-Feb-20 15:59N 38°02' E 023°31'0 0.0
2018-Feb-20 15:28N 38°02' E 023°31'0 0.0
2018-Feb-20 14:58N 38°02' E 023°31'0 0.0
2018-Feb-20 14:28N 38°02' E 023°31'0 0.0
2018-Feb-20 13:58N 38°02' E 023°31'0 0.0
2018-Feb-20 13:28N 38°02' E 023°31'0 0.0
2018-Feb-20 12:55N 38°02' E 023°31'0 0.0
2018-Feb-20 12:28N 38°02' E 023°31'0 0.0
2018-Feb-20 11:58N 38°02' E 023°31'0 0.0
2018-Feb-20 11:28N 38°02' E 023°31'0 0.0
2018-Feb-20 10:58N 38°02' E 023°31'0 0.0
2018-Feb-20 10:29N 38°02' E 023°31'0 0.0
2018-Feb-20 09:58N 38°02' E 023°31'0 0.0
2018-Feb-20 09:28N 38°02' E 023°31'0 0.0
2018-Feb-20 08:55N 38°02' E 023°31'0 0.0
2018-Feb-20 08:28N 38°02' E 023°31'0 0.0
2018-Feb-20 07:58N 38°02' E 023°31'0 0.0
2018-Feb-20 07:28N 38°02' E 023°31'0 0.0
2018-Feb-20 07:00N 38°02' E 023°31'0 0.4
2018-Feb-20 06:30N 38°02' E 023°31'1 2.2
2018-Feb-20 05:58N 38°02' E 023°32'0 0.1
2018-Feb-20 05:28N 38°02' E 023°32'0 0.0
2018-Feb-20 04:58N 38°02' E 023°32'0 0.0
2018-Feb-20 04:28N 38°02' E 023°32'0 0.1
2018-Feb-20 03:58N 38°02' E 023°32'0 0.0
2018-Feb-20 03:28N 38°02' E 023°32'0 0.1
2018-Feb-20 02:58N 38°02' E 023°32'0 0.0
2018-Feb-20 02:28N 38°02' E 023°32'0 0.0
2018-Feb-20 01:58N 38°02' E 023°32'0 0.0
2018-Feb-20 01:28N 38°02' E 023°32'0 0.0
2018-Feb-20 00:58N 38°02' E 023°32'0 0.0
2018-Feb-20 00:28N 38°02' E 023°32'0 0.0
2018-Feb-19 23:58N 38°02' E 023°32'0 0.0
2018-Feb-19 23:29N 38°02' E 023°32'0 0.0
2018-Feb-19 22:58N 38°02' E 023°32'0 0.1
2018-Feb-19 22:28N 38°02' E 023°32'0 0.1
2018-Feb-19 21:58N 38°02' E 023°32'0 0.0
2018-Feb-19 21:29N 38°02' E 023°32'0 0.1
2018-Feb-19 20:58N 38°02' E 023°32'0 0.0
2018-Feb-19 20:28N 38°02' E 023°32'0 0.1
2018-Feb-19 19:59N 38°02' E 023°32'0 0.0
2018-Feb-19 19:28N 38°02' E 023°32'0 0.0
2018-Feb-19 18:58N 38°02' E 023°32'0 0.0
2018-Feb-19 18:29N 38°02' E 023°32'0 0.0
2018-Feb-19 17:59N 38°02' E 023°32'0 0.0
2018-Feb-19 17:28N 38°02' E 023°32'0 0.0
2018-Feb-19 16:58N 38°02' E 023°32'0 0.0
2018-Feb-19 16:28N 38°02' E 023°32'0 0.2
2018-Feb-19 15:58N 38°02' E 023°32'0 0.0
2018-Feb-19 15:28N 38°02' E 023°32'0 0.2
2018-Feb-19 14:58N 38°02' E 023°32'0 0.0
2018-Feb-19 14:28N 38°02' E 023°32'0 0.0
2018-Feb-19 13:58N 38°02' E 023°32'0 0.2
2018-Feb-19 13:28N 38°02' E 023°32'0 0.0
2018-Feb-19 12:58N 38°02' E 023°32'0 0.0
2018-Feb-19 12:29N 38°02' E 023°32'0 0.1
2018-Feb-19 11:58N 38°02' E 023°32'0 0.1
2018-Feb-19 11:28N 38°02' E 023°32'0 0.1
2018-Feb-19 10:58N 38°02' E 023°32'0 0.0
2018-Feb-19 10:25N 38°02' E 023°32'0 0.0
2018-Feb-19 09:58N 38°02' E 023°32'0 0.1
2018-Feb-19 09:28N 38°02' E 023°32'0 0.1
2018-Feb-19 08:59N 38°02' E 023°32'0 0.0
2018-Feb-19 08:29N 38°02' E 023°32'0 0.0
2018-Feb-19 07:58N 38°02' E 023°32'0 0.0
2018-Feb-19 07:28N 38°02' E 023°32'0 0.0
2018-Feb-19 06:58N 38°02' E 023°32'0 0.0
2018-Feb-19 06:28N 38°02' E 023°32'0 0.0
2018-Feb-19 05:58N 38°02' E 023°32'0 0.0
2018-Feb-19 05:28N 38°02' E 023°32'0 0.0
2018-Feb-19 04:58N 38°02' E 023°32'0 0.0
2018-Feb-19 04:28N 38°02' E 023°32'0 0.0
2018-Feb-19 03:58N 38°02' E 023°32'0 0.0
2018-Feb-19 03:29N 38°02' E 023°32'0 0.1
2018-Feb-19 02:59N 38°02' E 023°32'0 0.0
2018-Feb-19 02:28N 38°02' E 023°32'0 0.0
2018-Feb-19 01:59N 38°02' E 023°32'0 0.0
2018-Feb-19 01:29N 38°02' E 023°32'0 0.1
2018-Feb-19 00:58N 38°02' E 023°32'0 0.0
2018-Feb-19 00:28N 38°02' E 023°32'0 0.1
2018-Feb-18 23:58N 38°02' E 023°32'0 0.0
2018-Feb-18 23:28N 38°02' E 023°32'0 0.1
2018-Feb-18 22:58N 38°02' E 023°32'0 0.1
2018-Feb-18 22:28N 38°02' E 023°32'0 0.1
2018-Feb-18 21:59N 38°02' E 023°32'0 0.0
2018-Feb-18 21:29N 38°02' E 023°32'0 0.0
2018-Feb-18 20:58N 38°02' E 023°32'0 0.0
2018-Feb-18 20:28N 38°02' E 023°32'0 0.0
2018-Feb-18 19:58N 38°02' E 023°32'0 0.0
2018-Feb-18 19:29N 38°02' E 023°32'0 0.0
2018-Feb-18 18:58N 38°02' E 023°32'0 0.0
2018-Feb-18 18:28N 38°02' E 023°32'0 0.1
2018-Feb-18 17:59N 38°02' E 023°32'0 0.1
2018-Feb-18 17:29N 38°02' E 023°32'0 0.1
2018-Feb-18 16:59N 38°02' E 023°32'0 0.1
2018-Feb-18 16:28N 38°02' E 023°32'0 0.0
2018-Feb-18 15:58N 38°02' E 023°32'0 0.0
2018-Feb-18 15:28N 38°02' E 023°32'0 0.0
2018-Feb-18 14:59N 38°02' E 023°32'0 0.0
2018-Feb-18 14:29N 38°02' E 023°32'0 0.0
2018-Feb-18 13:58N 38°02' E 023°32'0 0.0
2018-Feb-18 13:29N 38°02' E 023°32'0 0.1
2018-Feb-18 12:58N 38°02' E 023°32'0 0.0
2018-Feb-18 12:28N 38°02' E 023°32'0 0.0
2018-Feb-18 11:59N 38°02' E 023°32'0 0.0
2018-Feb-18 11:28N 38°02' E 023°32'0 0.0
2018-Feb-18 10:58N 38°02' E 023°32'0 0.0
2018-Feb-18 10:28N 38°02' E 023°32'0 0.0
2018-Feb-18 09:59N 38°02' E 023°32'0 0.1
2018-Feb-18 09:28N 38°02' E 023°32'0 0.0
2018-Feb-18 08:59N 38°02' E 023°32'0 0.1
2018-Feb-18 08:28N 38°02' E 023°32'0 0.1
2018-Feb-18 07:58N 38°02' E 023°32'0 0.0
2018-Feb-18 07:29N 38°02' E 023°32'0 0.0
2018-Feb-18 06:58N 38°02' E 023°32'0 0.0
2018-Feb-18 06:29N 38°02' E 023°32'0 0.0
2018-Feb-18 05:59N 38°02' E 023°32'0 0.0
2018-Feb-18 05:28N 38°02' E 023°32'0 0.0
2018-Feb-18 04:58N 38°02' E 023°32'0 0.0
2018-Feb-18 04:28N 38°02' E 023°32'0 0.0
2018-Feb-18 03:58N 38°02' E 023°32'0 0.0
2018-Feb-18 03:28N 38°02' E 023°32'0 0.0
2018-Feb-18 02:58N 38°02' E 023°32'0 0.1
2018-Feb-18 02:29N 38°02' E 023°32'0 0.1
2018-Feb-18 01:58N 38°02' E 023°32'0 0.1
2018-Feb-18 01:28N 38°02' E 023°32'0 0.1
2018-Feb-18 00:58N 38°02' E 023°32'0 0.0
2018-Feb-18 00:28N 38°02' E 023°32'0 0.0
2018-Feb-17 23:58N 38°02' E 023°32'0 0.0
2018-Feb-17 23:28N 38°02' E 023°32'0 0.1
2018-Feb-17 22:58N 38°02' E 023°32'0 0.0
2018-Feb-17 22:28N 38°02' E 023°32'0 0.0
2018-Feb-17 21:58N 38°02' E 023°32'0 0.0
2018-Feb-17 21:28N 38°02' E 023°32'0 0.1
2018-Feb-17 20:58N 38°02' E 023°32'0 0.0
2018-Feb-17 20:28N 38°02' E 023°32'0 0.0
2018-Feb-17 19:59N 38°02' E 023°32'0 0.0
2018-Feb-17 19:28N 38°02' E 023°32'0 0.0
2018-Feb-17 18:59N 38°02' E 023°32'0 0.0
2018-Feb-17 18:28N 38°02' E 023°32'0 0.0
2018-Feb-17 17:58N 38°02' E 023°32'0 0.0
2018-Feb-17 17:28N 38°02' E 023°32'0 0.0
2018-Feb-17 16:58N 38°02' E 023°32'0 0.0
2018-Feb-17 16:29N 38°02' E 023°32'0 0.0
2018-Feb-17 15:58N 38°02' E 023°32'0 0.0
2018-Feb-17 15:28N 38°02' E 023°32'0 0.0
2018-Feb-17 14:59N 38°02' E 023°32'0 0.0
2018-Feb-17 14:29N 38°02' E 023°32'0 0.0
2018-Feb-17 13:58N 38°02' E 023°32'0 0.0
2018-Feb-17 13:29N 38°02' E 023°32'0 0.1
2018-Feb-17 12:59N 38°02' E 023°32'0 0.0
2018-Feb-17 12:28N 38°02' E 023°32'0 0.0
2018-Feb-17 11:59N 38°02' E 023°32'0 0.0
2018-Feb-17 11:28N 38°02' E 023°32'0 0.0
2018-Feb-17 10:55N 38°02' E 023°32'0 0.5
2018-Feb-17 10:31N 38°02' E 023°32'3 6.8
2018-Feb-17 10:00N 37°58' E 023°33'4 7.1
2018-Feb-17 09:30N 37°56' E 023°36'3 5.4
2018-Feb-17 09:00N 37°53' E 023°37'5 9.7
2018-Feb-17 08:31N 37°49' E 023°40'510.9
2018-Feb-17 08:00N 37°44' E 023°43'510.4
2018-Feb-17 07:30N 37°40' E 023°47'510.8
2018-Feb-17 07:00N 37°38' E 023°54'1111.0
2018-Feb-17 06:01N 37°38' E 024°08'012.4
2018-Feb-17 06:00N 37°38' E 024°08'911.8
2018-Feb-17 05:15N 37°43' E 024°17'  
Track history (hours):
 
Tides and Currents Weather Stations Pressure Air Temp Water Temp Dewpoint Dewpoint Depression Visibility Wind Speed Wind Dir Waves Ship Positions

Irini

Last reported at 2018-Feb-25 19:28 UTC. Time now 2018-Feb-25 19:43 UTC.
Position N 38°01' E 023°32'.

Length 137 m; draft 5.9 m.

Type: Ship (hazmat cat A). MMSI: 240052000.

Date/timePositionNaut miles runAvg speedWind from/ knotsBaromVisibWave heightAir tempDewpointWater temp
2018-Feb-25 19:28N 38°01' E 023°32'0 0.0
2018-Feb-25 18:58N 38°01' E 023°32'0 0.0
2018-Feb-25 18:28N 38°01' E 023°32'0 0.0
2018-Feb-25 17:58N 38°01' E 023°32'0 0.0
2018-Feb-25 17:28N 38°01' E 023°32'0 0.0
2018-Feb-25 16:58N 38°01' E 023°32'0 0.0
2018-Feb-25 16:28N 38°01' E 023°32'0 0.0
2018-Feb-25 15:58N 38°01' E 023°32'0 0.2
2018-Feb-25 15:28N 38°02' E 023°33'0 0.1
2018-Feb-25 14:58N 38°02' E 023°33'0 0.1
2018-Feb-25 14:28N 38°02' E 023°33'0 0.1
2018-Feb-25 13:58N 38°01' E 023°32'0 0.0
2018-Feb-25 13:28N 38°01' E 023°32'0 0.0
2018-Feb-25 12:58N 38°01' E 023°32'2 3.3
2018-Feb-25 12:30N 37°60' E 023°33'4 8.5
2018-Feb-25 12:00N 37°56' E 023°36'5 9.2
2018-Feb-25 11:30N 37°52' E 023°37'611.3
2018-Feb-25 11:00N 37°47' E 023°41'611.2
2018-Feb-25 10:30N 37°42' E 023°44'611.2
2018-Feb-25 10:00N 37°39' E 023°50'1511.1
2018-Feb-25 08:42N 37°37' E 024°08'912.0
2018-Feb-25 07:57N 37°43' E 024°17'3710.1
2018-Feb-25 04:17N 38°18' E 024°32'411.1
2018-Feb-25 03:57N 38°21' E 024°30'  
2018-Feb-22 10:27N 37°37' E 024°05'510.8
2018-Feb-22 10:00N 37°36' E 023°59'510.8
2018-Feb-22 09:30N 37°37' E 023°52'611.1
2018-Feb-22 09:00N 37°39' E 023°46'510.3
2018-Feb-22 08:30N 37°42' E 023°41'511.0
2018-Feb-22 08:00N 37°47' E 023°38'510.8
2018-Feb-22 07:31N 37°53' E 023°36'4 8.4
2018-Feb-22 07:00N 37°57' E 023°36'4 7.6
2018-Feb-22 06:30N 37°60' E 023°33'2 3.5
2018-Feb-22 05:59N 38°01' E 023°32'0 0.0
2018-Feb-22 05:29N 38°01' E 023°32'0 0.0
2018-Feb-22 04:59N 38°01' E 023°32'0 0.0
2018-Feb-22 04:29N 38°01' E 023°32'0 0.0
2018-Feb-22 03:59N 38°01' E 023°32'0 0.0
2018-Feb-22 03:29N 38°01' E 023°32'0 0.1
2018-Feb-22 02:59N 38°01' E 023°32'0 0.0
2018-Feb-22 02:29N 38°01' E 023°32'0 0.0
2018-Feb-22 01:59N 38°01' E 023°32'0 0.0
2018-Feb-22 01:29N 38°01' E 023°32'0 0.1
2018-Feb-22 00:59N 38°01' E 023°32'0 0.0
2018-Feb-22 00:29N 38°01' E 023°32'0 0.0
2018-Feb-21 23:59N 38°01' E 023°32'0 0.1
2018-Feb-21 23:29N 38°01' E 023°32'0 0.1
2018-Feb-21 23:00N 38°01' E 023°32'1 2.5
2018-Feb-21 22:30N 38°02' E 023°31'0 0.2
2018-Feb-21 21:59N 38°02' E 023°31'0 0.0
2018-Feb-21 21:28N 38°02' E 023°31'0 0.0
2018-Feb-21 20:58N 38°02' E 023°31'0 0.0
2018-Feb-21 20:28N 38°02' E 023°31'0 0.0
2018-Feb-21 19:58N 38°02' E 023°31'0 0.0
2018-Feb-21 19:28N 38°02' E 023°31'0 0.0
2018-Feb-21 18:58N 38°02' E 023°31'0 0.0
2018-Feb-21 18:28N 38°02' E 023°31'0 0.0
2018-Feb-21 17:58N 38°02' E 023°31'0 0.0
2018-Feb-21 17:28N 38°02' E 023°31'0 0.0
2018-Feb-21 16:58N 38°02' E 023°31'0 0.0
2018-Feb-21 16:28N 38°02' E 023°31'0 0.0
2018-Feb-21 15:58N 38°02' E 023°31'0 0.0
2018-Feb-21 15:28N 38°02' E 023°31'0 0.0
2018-Feb-21 14:58N 38°02' E 023°31'0 0.0
2018-Feb-21 14:29N 38°02' E 023°31'0 0.0
2018-Feb-21 13:58N 38°02' E 023°31'0 0.0
2018-Feb-21 13:29N 38°02' E 023°31'0 0.0
2018-Feb-21 12:58N 38°02' E 023°31'0 0.0
2018-Feb-21 12:28N 38°02' E 023°31'0 0.0
2018-Feb-21 11:58N 38°02' E 023°31'0 0.0
2018-Feb-21 11:29N 38°02' E 023°31'0 0.0
2018-Feb-21 10:58N 38°02' E 023°31'0 0.0
2018-Feb-21 10:29N 38°02' E 023°31'0 0.0
2018-Feb-21 09:58N 38°02' E 023°31'0 0.0
2018-Feb-21 09:28N 38°02' E 023°31'0 0.0
2018-Feb-21 08:58N 38°02' E 023°31'0 0.0
2018-Feb-21 08:28N 38°02' E 023°31'0 0.0
2018-Feb-21 07:58N 38°02' E 023°31'0 0.0
2018-Feb-21 07:28N 38°02' E 023°31'0 0.0
2018-Feb-21 06:58N 38°02' E 023°31'0 0.0
2018-Feb-21 06:28N 38°02' E 023°31'0 0.0
2018-Feb-21 05:58N 38°02' E 023°31'0 0.0
2018-Feb-21 05:28N 38°02' E 023°31'0 0.0
2018-Feb-21 04:58N 38°02' E 023°31'0 0.0
2018-Feb-21 04:28N 38°02' E 023°31'0 0.0
2018-Feb-21 03:58N 38°02' E 023°31'0 0.0
2018-Feb-21 03:28N 38°02' E 023°31'0 0.0
2018-Feb-21 02:58N 38°02' E 023°31'0 0.0
2018-Feb-21 02:29N 38°02' E 023°31'0 0.0
2018-Feb-21 01:59N 38°02' E 023°31'0 0.0
2018-Feb-21 01:29N 38°02' E 023°31'0 0.0
2018-Feb-21 00:58N 38°02' E 023°31'0 0.0
2018-Feb-21 00:28N 38°02' E 023°31'0 0.0
2018-Feb-20 23:56N 38°02' E 023°31'0 0.0
2018-Feb-20 23:29N 38°02' E 023°31'0 0.0
2018-Feb-20 22:59N 38°02' E 023°31'0 0.0
2018-Feb-20 22:29N 38°02' E 023°31'0 0.0
2018-Feb-20 21:59N 38°02' E 023°31'0 0.0
2018-Feb-20 21:29N 38°02' E 023°31'0 0.0
2018-Feb-20 20:58N 38°02' E 023°31'0 0.0
2018-Feb-20 20:29N 38°02' E 023°31'0 0.0
2018-Feb-20 19:59N 38°02' E 023°31'0 0.0
2018-Feb-20 19:28N 38°02' E 023°31'0 0.0
2018-Feb-20 18:58N 38°02' E 023°31'0 0.0
2018-Feb-20 18:28N 38°02' E 023°31'0 0.0
2018-Feb-20 17:58N 38°02' E 023°31'0 0.0
2018-Feb-20 17:29N 38°02' E 023°31'0 0.0
2018-Feb-20 16:58N 38°02' E 023°31'0 0.0
2018-Feb-20 16:25N 38°02' E 023°31'0 0.0
2018-Feb-20 15:59N 38°02' E 023°31'0 0.0
2018-Feb-20 15:28N 38°02' E 023°31'0 0.0
2018-Feb-20 14:58N 38°02' E 023°31'0 0.0
2018-Feb-20 14:28N 38°02' E 023°31'0 0.0
2018-Feb-20 13:58N 38°02' E 023°31'0 0.0
2018-Feb-20 13:28N 38°02' E 023°31'0 0.0
2018-Feb-20 12:55N 38°02' E 023°31'0 0.0
2018-Feb-20 12:28N 38°02' E 023°31'0 0.0
2018-Feb-20 11:58N 38°02' E 023°31'0 0.0
2018-Feb-20 11:28N 38°02' E 023°31'0 0.0
2018-Feb-20 10:58N 38°02' E 023°31'0 0.0
2018-Feb-20 10:29N 38°02' E 023°31'0 0.0
2018-Feb-20 09:58N 38°02' E 023°31'0 0.0
2018-Feb-20 09:28N 38°02' E 023°31'0 0.0
2018-Feb-20 08:55N 38°02' E 023°31'0 0.0
2018-Feb-20 08:28N 38°02' E 023°31'0 0.0
2018-Feb-20 07:58N 38°02' E 023°31'0 0.0
2018-Feb-20 07:28N 38°02' E 023°31'0 0.0
2018-Feb-20 07:00N 38°02' E 023°31'0 0.4
2018-Feb-20 06:30N 38°02' E 023°31'1 2.2
2018-Feb-20 05:58N 38°02' E 023°32'0 0.1
2018-Feb-20 05:28N 38°02' E 023°32'0 0.0
2018-Feb-20 04:58N 38°02' E 023°32'0 0.0
2018-Feb-20 04:28N 38°02' E 023°32'0 0.1
2018-Feb-20 03:58N 38°02' E 023°32'0 0.0
2018-Feb-20 03:28N 38°02' E 023°32'0 0.1
2018-Feb-20 02:58N 38°02' E 023°32'0 0.0
2018-Feb-20 02:28N 38°02' E 023°32'0 0.0
2018-Feb-20 01:58N 38°02' E 023°32'0 0.0
2018-Feb-20 01:28N 38°02' E 023°32'0 0.0
2018-Feb-20 00:58N 38°02' E 023°32'0 0.0
2018-Feb-20 00:28N 38°02' E 023°32'0 0.0
2018-Feb-19 23:58N 38°02' E 023°32'0 0.0
2018-Feb-19 23:29N 38°02' E 023°32'0 0.0
2018-Feb-19 22:58N 38°02' E 023°32'0 0.1
2018-Feb-19 22:28N 38°02' E 023°32'0 0.1
2018-Feb-19 21:58N 38°02' E 023°32'0 0.0
2018-Feb-19 21:29N 38°02' E 023°32'0 0.1
2018-Feb-19 20:58N 38°02' E 023°32'0 0.0
2018-Feb-19 20:28N 38°02' E 023°32'0 0.1
2018-Feb-19 19:59N 38°02' E 023°32'0 0.0
2018-Feb-19 19:28N 38°02' E 023°32'0 0.0
2018-Feb-19 18:58N 38°02' E 023°32'0 0.0
2018-Feb-19 18:29N 38°02' E 023°32'0 0.0
2018-Feb-19 17:59N 38°02' E 023°32'0 0.0
2018-Feb-19 17:28N 38°02' E 023°32'0 0.0
2018-Feb-19 16:58N 38°02' E 023°32'0 0.0
2018-Feb-19 16:28N 38°02' E 023°32'0 0.2
2018-Feb-19 15:58N 38°02' E 023°32'0 0.0
2018-Feb-19 15:28N 38°02' E 023°32'0 0.2
2018-Feb-19 14:58N 38°02' E 023°32'0 0.0
2018-Feb-19 14:28N 38°02' E 023°32'0 0.0
2018-Feb-19 13:58N 38°02' E 023°32'0 0.2
2018-Feb-19 13:28N 38°02' E 023°32'0 0.0
2018-Feb-19 12:58N 38°02' E 023°32'0 0.0
2018-Feb-19 12:29N 38°02' E 023°32'0 0.1
2018-Feb-19 11:58N 38°02' E 023°32'0 0.1
2018-Feb-19 11:28N 38°02' E 023°32'0 0.1
2018-Feb-19 10:58N 38°02' E 023°32'0 0.0
2018-Feb-19 10:25N 38°02' E 023°32'0 0.0
2018-Feb-19 09:58N 38°02' E 023°32'0 0.1
2018-Feb-19 09:28N 38°02' E 023°32'0 0.1
2018-Feb-19 08:59N 38°02' E 023°32'0 0.0
2018-Feb-19 08:29N 38°02' E 023°32'0 0.0
2018-Feb-19 07:58N 38°02' E 023°32'0 0.0
2018-Feb-19 07:28N 38°02' E 023°32'0 0.0
2018-Feb-19 06:58N 38°02' E 023°32'0 0.0
2018-Feb-19 06:28N 38°02' E 023°32'0 0.0
2018-Feb-19 05:58N 38°02' E 023°32'0 0.0
2018-Feb-19 05:28N 38°02' E 023°32'0 0.0
2018-Feb-19 04:58N 38°02' E 023°32'0 0.0
2018-Feb-19 04:28N 38°02' E 023°32'0 0.0
2018-Feb-19 03:58N 38°02' E 023°32'0 0.0
2018-Feb-19 03:29N 38°02' E 023°32'0 0.1
2018-Feb-19 02:59N 38°02' E 023°32'0 0.0
2018-Feb-19 02:28N 38°02' E 023°32'0 0.0
2018-Feb-19 01:59N 38°02' E 023°32'0 0.0
2018-Feb-19 01:29N 38°02' E 023°32'0 0.1
2018-Feb-19 00:58N 38°02' E 023°32'0 0.0
2018-Feb-19 00:28N 38°02' E 023°32'0 0.1
2018-Feb-18 23:58N 38°02' E 023°32'0 0.0
2018-Feb-18 23:28N 38°02' E 023°32'0 0.1
2018-Feb-18 22:58N 38°02' E 023°32'0 0.1
2018-Feb-18 22:28N 38°02' E 023°32'0 0.1
2018-Feb-18 21:59N 38°02' E 023°32'0 0.0
2018-Feb-18 21:29N 38°02' E 023°32'0 0.0
2018-Feb-18 20:58N 38°02' E 023°32'0 0.0
2018-Feb-18 20:28N 38°02' E 023°32'0 0.0
2018-Feb-18 19:58N 38°02' E 023°32'0 0.0
2018-Feb-18 19:29N 38°02' E 023°32'0 0.0
2018-Feb-18 18:58N 38°02' E 023°32'0 0.0
2018-Feb-18 18:28N 38°02' E 023°32'0 0.1
2018-Feb-18 17:59N 38°02' E 023°32'0 0.1
2018-Feb-18 17:29N 38°02' E 023°32'0 0.1
2018-Feb-18 16:59N 38°02' E 023°32'0 0.1
2018-Feb-18 16:28N 38°02' E 023°32'0 0.0
2018-Feb-18 15:58N 38°02' E 023°32'0 0.0
2018-Feb-18 15:28N 38°02' E 023°32'0 0.0
2018-Feb-18 14:59N 38°02' E 023°32'0 0.0
2018-Feb-18 14:29N 38°02' E 023°32'0 0.0
2018-Feb-18 13:58N 38°02' E 023°32'0 0.0
2018-Feb-18 13:29N 38°02' E 023°32'0 0.1
2018-Feb-18 12:58N 38°02' E 023°32'0 0.0
2018-Feb-18 12:28N 38°02' E 023°32'0 0.0
2018-Feb-18 11:59N 38°02' E 023°32'0 0.0
2018-Feb-18 11:28N 38°02' E 023°32'0 0.0
2018-Feb-18 10:58N 38°02' E 023°32'0 0.0
2018-Feb-18 10:28N 38°02' E 023°32'0 0.0
2018-Feb-18 09:59N 38°02' E 023°32'0 0.1
2018-Feb-18 09:28N 38°02' E 023°32'0 0.0
2018-Feb-18 08:59N 38°02' E 023°32'0 0.1
2018-Feb-18 08:28N 38°02' E 023°32'0 0.1
2018-Feb-18 07:58N 38°02' E 023°32'0 0.0
2018-Feb-18 07:29N 38°02' E 023°32'0 0.0
2018-Feb-18 06:58N 38°02' E 023°32'0 0.0
2018-Feb-18 06:29N 38°02' E 023°32'0 0.0
2018-Feb-18 05:59N 38°02' E 023°32'0 0.0
2018-Feb-18 05:28N 38°02' E 023°32'0 0.0
2018-Feb-18 04:58N 38°02' E 023°32'0 0.0
2018-Feb-18 04:28N 38°02' E 023°32'0 0.0
2018-Feb-18 03:58N 38°02' E 023°32'0 0.0
2018-Feb-18 03:28N 38°02' E 023°32'0 0.0
2018-Feb-18 02:58N 38°02' E 023°32'0 0.1
2018-Feb-18 02:29N 38°02' E 023°32'0 0.1
2018-Feb-18 01:58N 38°02' E 023°32'0 0.1
2018-Feb-18 01:28N 38°02' E 023°32'0 0.1
2018-Feb-18 00:58N 38°02' E 023°32'0 0.0
2018-Feb-18 00:28N 38°02' E 023°32'0 0.0
2018-Feb-17 23:58N 38°02' E 023°32'0 0.0
2018-Feb-17 23:28N 38°02' E 023°32'0 0.1
2018-Feb-17 22:58N 38°02' E 023°32'0 0.0
2018-Feb-17 22:28N 38°02' E 023°32'0 0.0
2018-Feb-17 21:58N 38°02' E 023°32'0 0.0
2018-Feb-17 21:28N 38°02' E 023°32'0 0.1
2018-Feb-17 20:58N 38°02' E 023°32'0 0.0
2018-Feb-17 20:28N 38°02' E 023°32'0 0.0
2018-Feb-17 19:59N 38°02' E 023°32'0 0.0
2018-Feb-17 19:28N 38°02' E 023°32'0 0.0
2018-Feb-17 18:59N 38°02' E 023°32'0 0.0
2018-Feb-17 18:28N 38°02' E 023°32'0 0.0
2018-Feb-17 17:58N 38°02' E 023°32'0 0.0
2018-Feb-17 17:28N 38°02' E 023°32'0 0.0
2018-Feb-17 16:58N 38°02' E 023°32'0 0.0
2018-Feb-17 16:29N 38°02' E 023°32'0 0.0
2018-Feb-17 15:58N 38°02' E 023°32'0 0.0
2018-Feb-17 15:28N 38°02' E 023°32'0 0.0
2018-Feb-17 14:59N 38°02' E 023°32'0 0.0
2018-Feb-17 14:29N 38°02' E 023°32'0 0.0
2018-Feb-17 13:58N 38°02' E 023°32'0 0.0
2018-Feb-17 13:29N 38°02' E 023°32'0 0.1
2018-Feb-17 12:59N 38°02' E 023°32'0 0.0
2018-Feb-17 12:28N 38°02' E 023°32'0 0.0
2018-Feb-17 11:59N 38°02' E 023°32'0 0.0
2018-Feb-17 11:28N 38°02' E 023°32'0 0.0
2018-Feb-17 10:55N 38°02' E 023°32'0 0.5
2018-Feb-17 10:31N 38°02' E 023°32'3 6.8
2018-Feb-17 10:00N 37°58' E 023°33'4 7.1
2018-Feb-17 09:30N 37°56' E 023°36'3 5.4
2018-Feb-17 09:00N 37°53' E 023°37'5 9.7
2018-Feb-17 08:31N 37°49' E 023°40'510.9
2018-Feb-17 08:00N 37°44' E 023°43'510.4
2018-Feb-17 07:30N 37°40' E 023°47'510.8
2018-Feb-17 07:00N 37°38' E 023°54'1111.0
2018-Feb-17 06:01N 37°38' E 024°08'012.4
2018-Feb-17 06:00N 37°38' E 024°08'911.8
2018-Feb-17 05:15N 37°43' E 024°17'  

Dump ship's entire track history